Hartford, Connecticut
Current Conditions -  °F | °C
As of 6:53 AM on Saturday 20 Dec 2014 (Local Time) from KHFD Reporting Station
Scattered Clouds Scattered Clouds  
Wind Chill: -7°   Ceiling: Unl
Heat Index: -3°   Visibility: 10mi
Dew Point: -8°   Wind: 6mph
Humidity: 71%   Direction: NA
Pressure: 30.28"   Gusts: NA
Location:  41.76°N, 72.67°W
Report Text: KHFD 201153Z VRB05KT 10SM SCT033 M03/M08 A3028 RMK AO2 SLP253 T10331078 11017 21033 51025
Loading
Personal Weather Stations






























Interactive Weather Map New forecast layout! Learn more

10-Day Weather Forecast

Advertisements
Track Severe Weather on mobile